createdAt,value
2022-09-24T00:02:11.732Z,11.14
2022-09-24T00:04:39.733Z,11.16
2022-09-24T00:07:07.823Z,11.17
2022-09-24T00:09:35.622Z,11.16
2022-09-24T00:12:04.201Z,11.19
2022-09-24T00:14:32.702Z,11.21
2022-09-24T00:17:00.516Z,11.22
2022-09-24T00:19:28.311Z,11.20
2022-09-24T00:21:56.276Z,11.22
2022-09-24T00:24:42.640Z,11.27
2022-09-24T00:27:10.969Z,11.20
2022-09-24T00:29:38.831Z,11.13
2022-09-24T00:32:06.922Z,11.12
2022-09-24T00:34:34.874Z,10.95
2022-09-24T00:37:03.064Z,10.87
2022-09-24T00:39:30.877Z,10.91
2022-09-24T00:41:58.782Z,11.03
2022-09-24T00:44:41.490Z,10.80
2022-09-24T00:47:35.022Z,10.67
2022-09-24T00:50:06.277Z,10.60
2022-09-24T00:53:09.491Z,10.45
2022-09-24T00:55:38.606Z,10.47
2022-09-24T00:58:09.015Z,10.45
2022-09-24T01:00:44.902Z,10.38
2022-09-24T01:03:23.027Z,10.35
2022-09-24T01:05:51.780Z,10.45
2022-09-24T01:08:21.116Z,10.44
2022-09-24T01:10:54.000Z,10.19
2022-09-24T01:13:43.361Z,10.17
2022-09-24T01:16:53.477Z,10.08
2022-09-24T01:20:01.064Z,10.14
2022-09-24T01:23:03.500Z,10.20
2022-09-24T01:25:50.520Z,10.10
2022-09-24T01:28:43.276Z,10.02
2022-09-24T01:31:28.359Z,9.84
2022-09-24T01:33:59.834Z,9.80
2022-09-24T01:36:29.674Z,9.74
2022-09-24T01:38:59.745Z,9.72
2022-09-24T01:41:28.053Z,9.61
2022-09-24T01:43:55.995Z,9.60
2022-09-24T01:46:25.197Z,9.64
2022-09-24T01:48:53.505Z,9.50
2022-09-24T01:51:34.783Z,9.39
2022-09-24T01:54:07.888Z,9.37
2022-09-24T01:57:04.569Z,9.37
2022-09-24T01:59:40.569Z,9.36
2022-09-24T02:02:30.669Z,9.24
2022-09-24T02:05:38.968Z,8.98
2022-09-24T02:08:23.865Z,8.95
2022-09-24T02:11:11.524Z,8.98
2022-09-24T02:13:48.352Z,9.02
2022-09-24T02:16:22.011Z,8.99
2022-09-24T02:18:54.896Z,9.03
2022-09-24T02:21:24.922Z,9.15
2022-09-24T02:24:21.426Z,8.98
2022-09-24T02:26:49.435Z,8.97
2022-09-24T02:29:18.625Z,8.84
2022-09-24T02:31:49.898Z,8.75
2022-09-24T02:34:25.920Z,8.73
2022-09-24T02:37:15.161Z,8.69
2022-09-24T02:39:43.694Z,8.78
2022-09-24T02:42:14.172Z,8.84
2022-09-24T02:44:41.926Z,8.78
2022-09-24T02:47:09.969Z,8.82
2022-09-24T02:49:37.762Z,8.86
2022-09-24T02:52:05.755Z,8.94
2022-09-24T02:54:34.198Z,8.91
2022-09-24T02:57:02.104Z,8.89
2022-09-24T02:59:29.938Z,8.80
2022-09-24T03:01:57.782Z,8.74
2022-09-24T03:04:26.309Z,8.74
2022-09-24T03:06:54.382Z,8.66
2022-09-24T03:09:22.216Z,8.66
2022-09-24T03:11:50.233Z,8.72
2022-09-24T03:14:18.161Z,8.62
2022-09-24T03:16:45.991Z,8.70
2022-09-24T03:19:13.779Z,8.64
2022-09-24T03:21:41.541Z,8.53
2022-09-24T03:24:09.361Z,8.28
2022-09-24T03:26:38.224Z,8.24
2022-09-24T03:29:05.997Z,8.12
2022-09-24T03:31:33.941Z,8.13
2022-09-24T03:34:01.851Z,8.24
2022-09-24T03:36:29.776Z,8.30
2022-09-24T03:38:58.025Z,8.32
2022-09-24T03:41:27.801Z,8.30
2022-09-24T03:43:56.403Z,8.24
2022-09-24T03:46:30.614Z,8.08
2022-09-24T03:49:00.603Z,8.05
2022-09-24T03:51:29.053Z,8.10
2022-09-24T03:53:56.838Z,8.09
2022-09-24T03:56:25.218Z,8.03
2022-09-24T03:58:53.887Z,7.99
2022-09-24T04:01:22.216Z,8.01
2022-09-24T04:03:51.033Z,8.11
2022-09-24T04:06:24.852Z,8.06
2022-09-24T04:08:54.413Z,7.99
2022-09-24T04:11:23.302Z,7.98
2022-09-24T04:13:51.779Z,7.91
2022-09-24T04:16:20.237Z,7.89
2022-09-24T04:18:48.919Z,7.89
2022-09-24T04:21:17.242Z,7.77
2022-09-24T04:23:45.548Z,7.84
2022-09-24T04:26:13.636Z,8.01
2022-09-24T04:28:41.635Z,7.90
2022-09-24T04:31:10.150Z,7.86
2022-09-24T04:33:38.160Z,7.99
2022-09-24T04:36:06.183Z,8.01
2022-09-24T04:38:34.799Z,7.99
2022-09-24T04:41:09.627Z,7.90
2022-09-24T04:43:38.008Z,7.93
2022-09-24T04:46:06.778Z,7.90
2022-09-24T04:48:38.261Z,7.93
2022-09-24T04:51:08.644Z,7.95
2022-09-24T04:53:37.444Z,7.88
2022-09-24T04:56:12.159Z,7.70
2022-09-24T04:58:40.324Z,7.72
2022-09-24T05:01:08.471Z,7.67
2022-09-24T05:03:36.448Z,7.76
2022-09-24T05:06:04.274Z,7.82
2022-09-24T05:08:32.014Z,7.96
2022-09-24T05:11:00.790Z,8.03
2022-09-24T05:13:28.675Z,7.94
2022-09-24T05:15:56.498Z,7.92
2022-09-24T05:18:24.405Z,7.93
2022-09-24T05:20:52.532Z,7.93
2022-09-24T05:23:20.342Z,8.02
2022-09-24T05:26:06.504Z,8.10
2022-09-24T05:28:35.301Z,8.11
2022-09-24T05:31:03.150Z,8.22
2022-09-24T05:33:30.918Z,8.27
2022-09-24T05:35:59.109Z,8.35
2022-09-24T05:38:27.024Z,8.43
2022-09-24T05:40:54.957Z,8.47
2022-09-24T05:43:22.925Z,8.44
2022-09-24T05:45:51.035Z,8.42
2022-09-24T05:48:18.811Z,8.37
2022-09-24T05:50:46.968Z,8.42
2022-09-24T05:53:17.691Z,8.45
2022-09-24T05:55:45.505Z,8.46
2022-09-24T05:58:13.840Z,8.55
2022-09-24T06:00:41.765Z,8.62
2022-09-24T06:03:16.748Z,8.65
2022-09-24T06:05:50.730Z,8.75
2022-09-24T06:08:20.679Z,8.78
2022-09-24T06:10:49.232Z,8.87
2022-09-24T06:13:21.025Z,8.91
2022-09-24T06:15:49.313Z,8.97
2022-09-24T06:18:17.665Z,9.05
2022-09-24T06:20:47.063Z,9.14
2022-09-24T06:23:15.034Z,9.24
2022-09-24T06:25:42.892Z,9.32
2022-09-24T06:28:11.153Z,9.40
2022-09-24T06:30:39.636Z,9.52
2022-09-24T06:33:12.778Z,9.55
2022-09-24T06:35:42.846Z,9.58
2022-09-24T06:38:16.294Z,9.63
2022-09-24T06:40:47.039Z,9.69
2022-09-24T06:43:15.429Z,9.77
2022-09-24T06:45:43.214Z,9.87
2022-09-24T06:48:14.178Z,9.90
2022-09-24T06:50:45.528Z,9.99
2022-09-24T06:53:13.533Z,10.06
2022-09-24T06:55:42.275Z,10.16
2022-09-24T06:58:23.650Z,10.36
2022-09-24T07:01:02.948Z,10.50
2022-09-24T07:03:33.684Z,10.70
2022-09-24T07:06:04.667Z,10.80
2022-09-24T07:08:33.099Z,10.72
2022-09-24T07:11:01.636Z,10.79
2022-09-24T07:13:29.672Z,10.93
2022-09-24T07:15:57.483Z,11.04
2022-09-24T07:18:25.318Z,11.20
2022-09-24T07:20:57.085Z,11.30
2022-09-24T07:23:24.885Z,11.45
2022-09-24T07:25:57.382Z,11.41
2022-09-24T07:28:25.633Z,11.62
2022-09-24T07:30:58.632Z,11.71
2022-09-24T07:33:26.594Z,11.68
2022-09-24T07:35:54.352Z,11.58
2022-09-24T07:38:22.546Z,11.63
2022-09-24T07:40:50.488Z,11.73
2022-09-24T07:43:18.348Z,11.74
2022-09-24T07:45:46.408Z,11.74
2022-09-24T07:48:15.814Z,11.75
2022-09-24T07:50:43.705Z,11.85
2022-09-24T07:53:12.913Z,12.02
2022-09-24T07:55:41.523Z,12.12
2022-09-24T07:58:16.514Z,12.28
2022-09-24T08:00:44.481Z,12.42
2022-09-24T08:03:12.384Z,12.36
2022-09-24T08:05:47.906Z,12.53
2022-09-24T08:08:16.187Z,12.70
2022-09-24T08:10:44.450Z,12.60
2022-09-24T08:13:12.364Z,12.73
2022-09-24T08:15:40.906Z,12.82
2022-09-24T08:18:09.285Z,12.97
2022-09-24T08:20:38.772Z,13.10
2022-09-24T08:23:12.660Z,13.03
2022-09-24T08:25:40.551Z,13.18
2022-09-24T08:28:12.218Z,13.14
2022-09-24T08:30:40.978Z,13.16
2022-09-24T08:33:09.692Z,13.31
2022-09-24T08:35:40.342Z,13.31
2022-09-24T08:38:09.307Z,13.25
2022-09-24T08:40:51.124Z,13.21
2022-09-24T08:43:39.998Z,13.14
2022-09-24T08:46:42.898Z,13.20
2022-09-24T08:49:18.191Z,13.24
2022-09-24T08:52:31.246Z,13.26
2022-09-24T08:55:07.831Z,13.33
2022-09-24T08:58:06.224Z,13.39
2022-09-24T09:00:53.416Z,13.31
2022-09-24T09:03:39.627Z,13.50
2022-09-24T09:06:32.425Z,13.64
2022-09-24T09:09:22.902Z,13.72
2022-09-24T09:11:59.639Z,13.93
2022-09-24T09:14:54.934Z,14.32
2022-09-24T09:17:52.149Z,14.14
2022-09-24T09:20:30.782Z,14.37
2022-09-24T09:23:05.887Z,14.32
2022-09-24T09:25:36.969Z,14.23
2022-09-24T09:28:15.779Z,14.35
2022-09-24T09:31:04.547Z,14.31
2022-09-24T09:33:50.939Z,14.33
2022-09-24T09:36:53.356Z,14.52
2022-09-24T09:39:59.542Z,14.61
2022-09-24T09:42:36.046Z,14.89
2022-09-24T09:45:34.436Z,14.88
2022-09-24T09:48:03.677Z,14.88
2022-09-24T09:50:46.517Z,14.80
2022-09-24T09:53:31.242Z,15.09
2022-09-24T09:56:06.504Z,14.95
2022-09-24T09:58:37.884Z,14.97
2022-09-24T10:01:13.144Z,14.98
2022-09-24T10:03:47.096Z,15.22
2022-09-24T10:06:28.479Z,15.08
2022-09-24T10:09:17.527Z,15.42
2022-09-24T10:11:46.451Z,15.14
2022-09-24T10:14:26.466Z,15.43
2022-09-24T10:17:09.658Z,15.37
2022-09-24T10:19:50.497Z,15.21
2022-09-24T10:22:36.594Z,15.50
2022-09-24T10:25:05.293Z,15.43
2022-09-24T10:27:36.669Z,15.68
2022-09-24T10:30:35.113Z,15.89
2022-09-24T10:33:04.974Z,15.65
2022-09-24T10:35:38.765Z,16.14
2022-09-24T10:38:22.226Z,16.47
2022-09-24T10:40:51.992Z,16.43
2022-09-24T10:43:22.394Z,16.62
2022-09-24T10:46:10.036Z,16.77
2022-09-24T10:48:55.105Z,16.46
2022-09-24T10:51:57.825Z,16.60
2022-09-24T10:54:48.914Z,17.21
2022-09-24T10:57:31.949Z,17.02
2022-09-24T11:00:20.296Z,17.14
2022-09-24T11:03:06.250Z,16.85
2022-09-24T11:05:45.243Z,17.38
2022-09-24T11:08:46.537Z,17.55
2022-09-24T11:11:56.994Z,17.84
2022-09-24T11:14:38.734Z,18.03
2022-09-24T11:17:24.687Z,17.91
2022-09-24T11:20:13.302Z,17.54
2022-09-24T11:23:11.443Z,17.79
2022-09-24T11:25:51.728Z,17.89
2022-09-24T11:28:38.733Z,18.06
2022-09-24T11:31:50.474Z,18.20
2022-09-24T11:35:06.378Z,18.37
2022-09-24T11:37:40.064Z,17.85
2022-09-24T11:40:30.161Z,18.36
2022-09-24T11:43:26.559Z,18.59
2022-09-24T11:46:10.398Z,18.74
2022-09-24T11:49:10.105Z,19.64
2022-09-24T11:51:54.705Z,19.71
2022-09-24T11:55:12.101Z,19.11
2022-09-24T11:57:59.835Z,18.78
2022-09-24T12:00:40.621Z,19.00
2022-09-24T12:03:36.694Z,19.07
2022-09-24T12:06:47.405Z,19.23
2022-09-24T12:09:40.823Z,19.58
2022-09-24T12:12:23.254Z,19.58
2022-09-24T12:15:24.679Z,19.79
2022-09-24T12:18:02.780Z,19.42
2022-09-24T12:20:41.657Z,19.78
2022-09-24T12:23:13.562Z,19.51
2022-09-24T12:25:45.854Z,20.00
2022-09-24T12:28:37.566Z,19.45
2022-09-24T12:31:48.724Z,19.40
2022-09-24T12:34:31.278Z,19.60
2022-09-24T12:37:10.680Z,19.23
2022-09-24T12:40:35.925Z,19.31
2022-09-24T12:43:25.311Z,19.18
2022-09-24T12:46:02.415Z,19.47
2022-09-24T12:48:34.859Z,19.29
2022-09-24T12:51:06.705Z,19.09
2022-09-24T12:53:38.551Z,19.24
2022-09-24T12:56:07.490Z,19.43
2022-09-24T12:58:44.757Z,19.51
2022-09-24T13:01:23.327Z,19.33
2022-09-24T13:04:26.886Z,19.05
2022-09-24T13:06:55.425Z,19.23
2022-09-24T13:09:37.833Z,19.19
2022-09-24T13:12:21.854Z,19.23
2022-09-24T13:15:02.982Z,18.93
2022-09-24T13:17:34.193Z,19.27
2022-09-24T13:20:09.320Z,19.60
2022-09-24T13:22:38.071Z,19.45
2022-09-24T13:25:27.294Z,19.55
2022-09-24T13:28:04.713Z,19.36
2022-09-24T13:30:38.075Z,19.14
2022-09-24T13:33:10.009Z,19.57
2022-09-24T13:35:50.581Z,19.39
2022-09-24T13:38:22.521Z,19.52
2022-09-24T13:41:02.570Z,19.38
2022-09-24T13:43:47.483Z,19.37
2022-09-24T13:46:19.696Z,19.19
2022-09-24T13:49:11.246Z,19.43
2022-09-24T13:51:40.702Z,19.72
2022-09-24T13:54:30.271Z,19.88
2022-09-24T13:57:11.371Z,19.81
2022-09-24T13:59:39.272Z,19.51
2022-09-24T14:02:27.955Z,19.56
2022-09-24T14:05:01.145Z,19.47
2022-09-24T14:07:29.727Z,19.81
2022-09-24T14:10:13.880Z,19.86
2022-09-24T14:12:41.704Z,19.77
2022-09-24T14:15:18.909Z,19.98
2022-09-24T14:17:59.225Z,19.72
2022-09-24T14:20:34.335Z,19.44
2022-09-24T14:23:04.518Z,19.65
2022-09-24T14:25:36.661Z,19.62
2022-09-24T14:28:05.900Z,19.50
2022-09-24T14:30:40.304Z,19.59
2022-09-24T14:33:17.117Z,19.47
2022-09-24T14:35:48.958Z,19.18
2022-09-24T14:38:25.739Z,19.13
2022-09-24T14:41:18.791Z,19.56
2022-09-24T14:44:00.875Z,19.70
2022-09-24T14:46:36.519Z,20.24
2022-09-24T14:49:31.623Z,20.06
2022-09-24T14:52:07.250Z,19.77
2022-09-24T14:54:41.256Z,20.05
2022-09-24T14:57:36.372Z,19.75
2022-09-24T15:00:48.741Z,19.92
2022-09-24T15:03:20.811Z,19.98
2022-09-24T15:05:48.762Z,19.66
2022-09-24T15:08:22.531Z,19.58
2022-09-24T15:10:57.475Z,19.23
2022-09-24T15:13:37.428Z,19.06
2022-09-24T15:16:32.391Z,18.89
2022-09-24T15:19:16.980Z,18.92
2022-09-24T15:21:49.117Z,18.95
2022-09-24T15:24:18.146Z,18.91
2022-09-24T15:26:50.701Z,18.86
2022-09-24T15:29:24.498Z,18.92
2022-09-24T15:31:54.356Z,18.83
2022-09-24T15:34:22.641Z,18.74
2022-09-24T15:36:59.564Z,18.69
2022-09-24T15:39:28.600Z,18.77
2022-09-24T15:41:57.989Z,18.79
2022-09-24T15:44:32.932Z,18.76
2022-09-24T15:47:01.779Z,18.77
2022-09-24T15:49:30.086Z,18.85
2022-09-24T15:52:24.756Z,18.74
2022-09-24T15:54:55.319Z,18.54
2022-09-24T15:57:23.423Z,18.46
2022-09-24T15:59:51.359Z,18.41
2022-09-24T16:02:28.944Z,18.26
2022-09-24T16:05:02.679Z,18.37
2022-09-24T16:07:31.962Z,18.32
2022-09-24T16:09:59.995Z,18.15
2022-09-24T16:12:28.372Z,18.14
2022-09-24T16:14:59.301Z,17.99
2022-09-24T16:17:28.776Z,17.72
2022-09-24T16:19:57.167Z,17.31
2022-09-24T16:22:25.198Z,17.16
2022-09-24T16:24:54.266Z,17.11
2022-09-24T16:27:22.619Z,17.24
2022-09-24T16:29:50.809Z,17.35
2022-09-24T16:32:18.679Z,17.30
2022-09-24T16:34:46.914Z,17.02
2022-09-24T16:37:16.787Z,16.79
2022-09-24T16:39:45.093Z,16.76
2022-09-24T16:42:12.837Z,16.81
2022-09-24T16:44:40.811Z,16.79
2022-09-24T16:47:08.851Z,16.76
2022-09-24T16:49:37.225Z,16.70
2022-09-24T16:52:06.298Z,16.64
2022-09-24T16:54:34.370Z,16.78
2022-09-24T16:57:03.574Z,16.92
2022-09-24T16:59:31.359Z,16.82
2022-09-24T17:01:59.989Z,16.73
2022-09-24T17:04:28.477Z,16.56
2022-09-24T17:06:59.187Z,16.54
2022-09-24T17:09:46.262Z,16.65
2022-09-24T17:12:14.067Z,16.46
2022-09-24T17:14:42.053Z,16.33
2022-09-24T17:17:09.932Z,16.10
2022-09-24T17:19:37.763Z,16.24
2022-09-24T17:22:05.637Z,16.20
2022-09-24T17:24:35.970Z,15.83
2022-09-24T17:27:03.870Z,15.81
2022-09-24T17:29:31.991Z,16.09
2022-09-24T17:32:00.116Z,16.09
2022-09-24T17:34:28.196Z,15.92
2022-09-24T17:36:57.132Z,15.82
2022-09-24T17:39:25.279Z,15.68
2022-09-24T17:41:53.078Z,15.60
2022-09-24T17:44:21.009Z,15.77
2022-09-24T17:46:48.861Z,15.67
2022-09-24T17:49:16.814Z,15.61
2022-09-24T17:51:47.550Z,15.60
2022-09-24T17:54:21.238Z,15.57
2022-09-24T17:56:49.664Z,15.47
2022-09-24T17:59:17.517Z,15.40
2022-09-24T18:01:46.493Z,15.40
2022-09-24T18:04:19.319Z,15.23
2022-09-24T18:06:49.631Z,15.19
2022-09-24T18:09:18.825Z,15.14
2022-09-24T18:11:52.518Z,15.15
2022-09-24T18:14:22.737Z,15.21
2022-09-24T18:16:51.212Z,15.05
2022-09-24T18:19:19.252Z,15.08
2022-09-24T18:21:49.256Z,14.97
2022-09-24T18:24:17.542Z,14.91
2022-09-24T18:26:49.505Z,14.90
2022-09-24T18:29:20.160Z,14.90
2022-09-24T18:31:48.387Z,14.86
2022-09-24T18:34:17.733Z,14.80
2022-09-24T18:36:48.276Z,14.81
2022-09-24T18:39:21.778Z,14.84
2022-09-24T18:41:52.067Z,14.89
2022-09-24T18:44:19.948Z,14.83
2022-09-24T18:46:48.141Z,14.84
2022-09-24T18:49:17.470Z,14.90
2022-09-24T18:51:46.614Z,14.84
2022-09-24T18:54:15.710Z,14.75
2022-09-24T18:56:43.953Z,14.60
2022-09-24T18:59:18.439Z,14.27
2022-09-24T19:01:48.664Z,14.08
2022-09-24T19:04:18.208Z,13.60
2022-09-24T19:06:50.837Z,13.58
2022-09-24T19:09:20.480Z,13.62
2022-09-24T19:14:40.244Z,13.77
2022-09-24T19:17:08.286Z,13.77
2022-09-24T19:19:36.834Z,13.66
2022-09-24T19:22:04.724Z,13.44
2022-09-24T19:24:32.756Z,13.45
2022-09-24T19:27:00.589Z,13.49
2022-09-24T19:29:28.563Z,13.62
2022-09-24T19:31:56.431Z,13.65
2022-09-24T19:34:24.207Z,13.76
2022-09-24T19:36:52.254Z,13.75
2022-09-24T19:39:20.234Z,13.61
2022-09-24T19:41:51.595Z,13.68
2022-09-24T19:44:19.598Z,13.74
2022-09-24T19:46:47.449Z,13.73
2022-09-24T19:49:15.332Z,13.76
2022-09-24T19:51:43.330Z,13.74
2022-09-24T19:54:11.624Z,13.66
2022-09-24T19:56:40.146Z,13.65
2022-09-24T19:59:09.614Z,13.64
2022-09-24T20:01:37.943Z,13.60
2022-09-24T20:04:07.882Z,13.63
2022-09-24T20:06:37.681Z,13.53
2022-09-24T20:09:06.997Z,13.48
2022-09-24T20:11:35.801Z,13.44
2022-09-24T20:14:06.215Z,13.52
2022-09-24T20:16:34.748Z,13.46
2022-09-24T20:19:03.522Z,13.38
2022-09-24T20:21:38.237Z,13.45
2022-09-24T20:24:10.010Z,13.43
2022-09-24T20:26:58.164Z,13.47
2022-09-24T20:29:25.949Z,13.44
2022-09-24T20:31:56.239Z,13.46
2022-09-24T20:34:28.836Z,13.47
2022-09-24T20:37:01.665Z,13.47
2022-09-24T20:39:30.469Z,13.51
2022-09-24T20:42:06.058Z,13.47
2022-09-24T20:44:34.623Z,13.48
2022-09-24T20:47:02.491Z,13.47
2022-09-24T20:49:30.625Z,13.52
2022-09-24T20:51:58.634Z,13.58
2022-09-24T20:54:28.701Z,13.49
2022-09-24T20:56:57.308Z,13.43
2022-09-24T20:59:26.743Z,13.41
2022-09-24T21:01:55.320Z,13.33
2022-09-24T21:04:24.341Z,13.37
2022-09-24T21:06:52.580Z,13.28
2022-09-24T21:09:20.552Z,13.32
2022-09-24T21:11:50.570Z,13.36
2022-09-24T21:14:19.185Z,13.36
2022-09-24T21:16:47.480Z,13.36
2022-09-24T21:19:16.083Z,13.39
2022-09-24T21:21:43.976Z,13.33
2022-09-24T21:24:15.383Z,13.32
2022-09-24T21:26:45.355Z,13.33
2022-09-24T21:29:18.219Z,13.31
2022-09-24T21:31:47.808Z,13.33
2022-09-24T21:34:19.865Z,13.32
2022-09-24T21:36:48.228Z,13.34
2022-09-24T21:39:31.347Z,13.32
2022-09-24T21:41:59.444Z,13.34
2022-09-24T21:44:34.597Z,13.28
2022-09-24T21:47:03.475Z,13.28
2022-09-24T21:49:33.663Z,13.23
2022-09-24T21:52:04.935Z,13.30
2022-09-24T21:54:33.621Z,13.28
2022-09-24T21:57:01.704Z,13.22
2022-09-24T21:59:47.802Z,13.27
2022-09-24T22:02:15.791Z,13.28
2022-09-24T22:04:44.430Z,13.19
2022-09-24T22:07:12.880Z,13.17
2022-09-24T22:09:41.110Z,13.22
2022-09-24T22:12:10.606Z,13.24
2022-09-24T22:14:43.282Z,13.26
2022-09-24T22:17:11.751Z,13.24
2022-09-24T22:19:40.235Z,13.25
2022-09-24T22:22:08.101Z,13.31
2022-09-24T22:24:36.545Z,13.34
2022-09-24T22:27:05.000Z,13.33
2022-09-24T22:29:32.798Z,13.32
2022-09-24T22:32:00.693Z,13.28
2022-09-24T22:34:47.081Z,13.29
2022-09-24T22:37:14.948Z,13.28
2022-09-24T22:39:42.882Z,13.33
2022-09-24T22:42:14.330Z,13.25
2022-09-24T22:44:42.194Z,13.23
2022-09-24T22:47:09.989Z,13.25
2022-09-24T22:49:38.104Z,13.24
2022-09-24T22:52:05.970Z,13.29
2022-09-24T22:54:33.813Z,13.32
2022-09-24T22:57:01.774Z,13.26
2022-09-24T22:59:29.613Z,13.19
2022-09-24T23:01:57.405Z,13.21
2022-09-24T23:04:25.341Z,13.25
2022-09-24T23:06:53.589Z,13.27
2022-09-24T23:09:21.625Z,13.25
2022-09-24T23:11:49.535Z,13.22
2022-09-24T23:14:17.328Z,13.25
2022-09-24T23:16:46.888Z,13.22
2022-09-24T23:19:18.760Z,13.23
2022-09-24T23:21:47.072Z,13.22
2022-09-24T23:24:18.697Z,13.21
2022-09-24T23:26:47.164Z,13.22
2022-09-24T23:29:15.779Z,13.27
2022-09-24T23:31:43.818Z,13.22
2022-09-24T23:34:14.220Z,13.25
2022-09-24T23:36:42.609Z,13.26
2022-09-24T23:39:10.969Z,13.29
2022-09-24T23:41:38.761Z,13.31
2022-09-24T23:44:06.919Z,13.31
2022-09-24T23:46:34.935Z,13.32
2022-09-24T23:49:03.343Z,13.29
2022-09-24T23:51:31.353Z,13.25
2022-09-24T23:53:59.290Z,13.25
2022-09-24T23:56:28.461Z,13.23
2022-09-24T23:58:56.914Z,13.25
